<?xml version="1.0" encoding="UTF-8" standalone="no" ?>
<gpx xmlns="http://www.topografix.com/GPX/1/1" xmlns:xsi="http://www.w3.org/2001/XMLSchema-instance" xsi:schemaLocation="http://www.topografix.com/GPX/1/1 http://www.topografix.com/GPX/1/1/gpx.xsd" version="1.1" creator="VisuGPX - https://www.visugpx.com">
  <metadata>
    <name>Mérindol forêt cèdres</name>
    <desc><![CDATA[Départ de Mérindol pour monter à la forêt de cèdres.
Tracé avant de la faire, à confirmer]]></desc>
  </metadata>
  <trk>
    <name><![CDATA[Mérindol - forêt de Cèdres]]></name>
    <trkseg>
      <trkpt lat="43.77456" lon="5.19055">
        <ele>262</ele>
        <time>2017-02-23T20:41:35+01:00</time>
      </trkpt>
      <trkpt lat="43.77605" lon="5.19054">
        <ele>267</ele>
        <time>2017-02-23T20:41:40+01:00</time>
      </trkpt>
      <trkpt lat="43.77697" lon="5.19039">
        <ele>276</ele>
        <time>2017-02-23T20:41:45+01:00</time>
      </trkpt>
      <trkpt lat="43.77704" lon="5.1902">
        <ele>277</ele>
        <time>2017-02-23T20:41:50+01:00</time>
      </trkpt>
      <trkpt lat="43.77744" lon="5.19035">
        <ele>277</ele>
        <time>2017-02-23T20:41:55+01:00</time>
      </trkpt>
      <trkpt lat="43.77817" lon="5.18988">
        <ele>282</ele>
        <time>2017-02-23T20:42:00+01:00</time>
      </trkpt>
      <trkpt lat="43.77873" lon="5.18995">
        <ele>284</ele>
        <time>2017-02-23T20:42:05+01:00</time>
      </trkpt>
      <trkpt lat="43.7796" lon="5.18894">
        <ele>292</ele>
        <time>2017-02-23T20:42:10+01:00</time>
      </trkpt>
      <trkpt lat="43.77955" lon="5.1883">
        <ele>294</ele>
        <time>2017-02-23T20:42:15+01:00</time>
      </trkpt>
      <trkpt lat="43.78015" lon="5.18815">
        <ele>293</ele>
        <time>2017-02-23T20:42:20+01:00</time>
      </trkpt>
      <trkpt lat="43.78122" lon="5.18896">
        <ele>302</ele>
        <time>2017-02-23T20:42:25+01:00</time>
      </trkpt>
      <trkpt lat="43.78223" lon="5.189">
        <ele>303</ele>
        <time>2017-02-23T20:42:30+01:00</time>
      </trkpt>
      <trkpt lat="43.78378" lon="5.18894">
        <ele>320</ele>
        <time>2017-02-23T20:42:35+01:00</time>
      </trkpt>
      <trkpt lat="43.78393" lon="5.19001">
        <ele>318</ele>
        <time>2017-02-23T20:42:40+01:00</time>
      </trkpt>
      <trkpt lat="43.78432" lon="5.19012">
        <ele>320</ele>
        <time>2017-02-23T20:42:45+01:00</time>
      </trkpt>
      <trkpt lat="43.78459" lon="5.19064">
        <ele>325</ele>
        <time>2017-02-23T20:42:50+01:00</time>
      </trkpt>
      <trkpt lat="43.78767" lon="5.19293">
        <ele>354</ele>
        <time>2017-02-23T20:42:55+01:00</time>
      </trkpt>
      <trkpt lat="43.78781" lon="5.19433">
        <ele>364</ele>
        <time>2017-02-23T20:43:00+01:00</time>
      </trkpt>
      <trkpt lat="43.78888" lon="5.19491">
        <ele>370</ele>
        <time>2017-02-23T20:43:05+01:00</time>
      </trkpt>
      <trkpt lat="43.78908" lon="5.19415">
        <ele>370</ele>
        <time>2017-02-23T20:43:10+01:00</time>
      </trkpt>
      <trkpt lat="43.78996" lon="5.19443">
        <ele>380</ele>
        <time>2017-02-23T20:43:15+01:00</time>
      </trkpt>
      <trkpt lat="43.79052" lon="5.1954">
        <ele>383</ele>
        <time>2017-02-23T20:43:20+01:00</time>
      </trkpt>
      <trkpt lat="43.79101" lon="5.19533">
        <ele>385</ele>
        <time>2017-02-23T20:43:25+01:00</time>
      </trkpt>
      <trkpt lat="43.7912" lon="5.19609">
        <ele>392</ele>
        <time>2017-02-23T20:43:30+01:00</time>
      </trkpt>
      <trkpt lat="43.79111" lon="5.1969">
        <ele>403</ele>
        <time>2017-02-23T20:43:35+01:00</time>
      </trkpt>
      <trkpt lat="43.79072" lon="5.19752">
        <ele>406</ele>
        <time>2017-02-23T20:43:40+01:00</time>
      </trkpt>
      <trkpt lat="43.79098" lon="5.1992">
        <ele>421</ele>
        <time>2017-02-23T20:43:45+01:00</time>
      </trkpt>
      <trkpt lat="43.79084" lon="5.1998">
        <ele>429</ele>
        <time>2017-02-23T20:43:50+01:00</time>
      </trkpt>
      <trkpt lat="43.79134" lon="5.20018">
        <ele>440</ele>
        <time>2017-02-23T20:43:55+01:00</time>
      </trkpt>
      <trkpt lat="43.79163" lon="5.20182">
        <ele>450</ele>
        <time>2017-02-23T20:44:00+01:00</time>
      </trkpt>
      <trkpt lat="43.79183" lon="5.20368">
        <ele>466</ele>
        <time>2017-02-23T20:44:05+01:00</time>
      </trkpt>
      <trkpt lat="43.79207" lon="5.20538">
        <ele>513</ele>
        <time>2017-02-23T20:44:10+01:00</time>
      </trkpt>
      <trkpt lat="43.79176" lon="5.20703">
        <ele>510</ele>
        <time>2017-02-23T20:44:15+01:00</time>
      </trkpt>
      <trkpt lat="43.79197" lon="5.20836">
        <ele>524</ele>
        <time>2017-02-23T20:44:20+01:00</time>
      </trkpt>
      <trkpt lat="43.79238" lon="5.2086">
        <ele>535</ele>
        <time>2017-02-23T20:44:25+01:00</time>
      </trkpt>
      <trkpt lat="43.79272" lon="5.21059">
        <ele>557</ele>
        <time>2017-02-23T20:44:30+01:00</time>
      </trkpt>
      <trkpt lat="43.79236" lon="5.21345">
        <ele>562</ele>
        <time>2017-02-23T20:44:35+01:00</time>
      </trkpt>
      <trkpt lat="43.79276" lon="5.2157">
        <ele>597</ele>
        <time>2017-02-23T20:44:40+01:00</time>
      </trkpt>
      <trkpt lat="43.79284" lon="5.21623">
        <ele>600</ele>
        <time>2017-02-23T20:44:45+01:00</time>
      </trkpt>
      <trkpt lat="43.79451" lon="5.21709">
        <ele>642</ele>
        <time>2017-02-23T20:44:50+01:00</time>
      </trkpt>
      <trkpt lat="43.79712" lon="5.21965">
        <ele>673</ele>
        <time>2017-02-23T20:44:55+01:00</time>
      </trkpt>
      <trkpt lat="43.79729" lon="5.20885">
        <ele>672</ele>
        <time>2017-02-23T20:45:00+01:00</time>
      </trkpt>
      <trkpt lat="43.79752" lon="5.20735">
        <ele>671</ele>
        <time>2017-02-23T20:45:05+01:00</time>
      </trkpt>
      <trkpt lat="43.7973" lon="5.2054">
        <ele>670</ele>
        <time>2017-02-23T20:45:10+01:00</time>
      </trkpt>
      <trkpt lat="43.79772" lon="5.20392">
        <ele>664</ele>
        <time>2017-02-23T20:45:15+01:00</time>
      </trkpt>
      <trkpt lat="43.79738" lon="5.2004">
        <ele>676</ele>
        <time>2017-02-23T20:45:20+01:00</time>
      </trkpt>
      <trkpt lat="43.79814" lon="5.19742">
        <ele>688</ele>
        <time>2017-02-23T20:45:25+01:00</time>
      </trkpt>
      <trkpt lat="43.79911" lon="5.19373">
        <ele>694</ele>
        <time>2017-02-23T20:45:30+01:00</time>
      </trkpt>
      <trkpt lat="43.79942" lon="5.19209">
        <ele>697</ele>
        <time>2017-02-23T20:45:35+01:00</time>
      </trkpt>
      <trkpt lat="43.79923" lon="5.1925">
        <ele>696</ele>
        <time>2017-02-23T20:45:40+01:00</time>
      </trkpt>
      <trkpt lat="43.79839" lon="5.19152">
        <ele>695</ele>
        <time>2017-02-23T20:45:45+01:00</time>
      </trkpt>
      <trkpt lat="43.79829" lon="5.19044">
        <ele>693</ele>
        <time>2017-02-23T20:45:50+01:00</time>
      </trkpt>
      <trkpt lat="43.79789" lon="5.19023">
        <ele>688</ele>
        <time>2017-02-23T20:45:55+01:00</time>
      </trkpt>
      <trkpt lat="43.7978" lon="5.18985">
        <ele>688</ele>
        <time>2017-02-23T20:46:00+01:00</time>
      </trkpt>
      <trkpt lat="43.7973" lon="5.18996">
        <ele>683</ele>
        <time>2017-02-23T20:46:05+01:00</time>
      </trkpt>
      <trkpt lat="43.79719" lon="5.18975">
        <ele>681</ele>
        <time>2017-02-23T20:46:10+01:00</time>
      </trkpt>
      <trkpt lat="43.79698" lon="5.18983">
        <ele>679</ele>
        <time>2017-02-23T20:46:15+01:00</time>
      </trkpt>
      <trkpt lat="43.79671" lon="5.18968">
        <ele>676</ele>
        <time>2017-02-23T20:46:20+01:00</time>
      </trkpt>
      <trkpt lat="43.79627" lon="5.1897">
        <ele>671</ele>
        <time>2017-02-23T20:46:25+01:00</time>
      </trkpt>
      <trkpt lat="43.79613" lon="5.19009">
        <ele>671</ele>
        <time>2017-02-23T20:46:30+01:00</time>
      </trkpt>
      <trkpt lat="43.79534" lon="5.19034">
        <ele>655</ele>
        <time>2017-02-23T20:46:35+01:00</time>
      </trkpt>
      <trkpt lat="43.79503" lon="5.19028">
        <ele>649</ele>
        <time>2017-02-23T20:46:40+01:00</time>
      </trkpt>
      <trkpt lat="43.79475" lon="5.19043">
        <ele>641</ele>
        <time>2017-02-23T20:46:45+01:00</time>
      </trkpt>
      <trkpt lat="43.79462" lon="5.19041">
        <ele>638</ele>
        <time>2017-02-23T20:46:50+01:00</time>
      </trkpt>
      <trkpt lat="43.79476" lon="5.18971">
        <ele>640</ele>
        <time>2017-02-23T20:46:55+01:00</time>
      </trkpt>
      <trkpt lat="43.79462" lon="5.18996">
        <ele>639</ele>
        <time>2017-02-23T20:47:00+01:00</time>
      </trkpt>
      <trkpt lat="43.79466" lon="5.18966">
        <ele>636</ele>
        <time>2017-02-23T20:47:05+01:00</time>
      </trkpt>
      <trkpt lat="43.79376" lon="5.19039">
        <ele>610</ele>
        <time>2017-02-23T20:47:10+01:00</time>
      </trkpt>
      <trkpt lat="43.79404" lon="5.18975">
        <ele>619</ele>
        <time>2017-02-23T20:47:15+01:00</time>
      </trkpt>
      <trkpt lat="43.79338" lon="5.18921">
        <ele>596</ele>
        <time>2017-02-23T20:47:20+01:00</time>
      </trkpt>
      <trkpt lat="43.79252" lon="5.1891">
        <ele>580</ele>
        <time>2017-02-23T20:47:25+01:00</time>
      </trkpt>
      <trkpt lat="43.79159" lon="5.1898">
        <ele>574</ele>
        <time>2017-02-23T20:47:30+01:00</time>
      </trkpt>
      <trkpt lat="43.79108" lon="5.18897">
        <ele>562</ele>
        <time>2017-02-23T20:47:35+01:00</time>
      </trkpt>
      <trkpt lat="43.79077" lon="5.18883">
        <ele>551</ele>
        <time>2017-02-23T20:47:40+01:00</time>
      </trkpt>
      <trkpt lat="43.78956" lon="5.18936">
        <ele>535</ele>
        <time>2017-02-23T20:47:45+01:00</time>
      </trkpt>
      <trkpt lat="43.78965" lon="5.18998">
        <ele>533</ele>
        <time>2017-02-23T20:47:50+01:00</time>
      </trkpt>
      <trkpt lat="43.78891" lon="5.18911">
        <ele>510</ele>
        <time>2017-02-23T20:47:55+01:00</time>
      </trkpt>
      <trkpt lat="43.78891" lon="5.18864">
        <ele>505</ele>
        <time>2017-02-23T20:48:00+01:00</time>
      </trkpt>
      <trkpt lat="43.78924" lon="5.18791">
        <ele>501</ele>
        <time>2017-02-23T20:48:05+01:00</time>
      </trkpt>
      <trkpt lat="43.78819" lon="5.18669">
        <ele>472</ele>
        <time>2017-02-23T20:48:10+01:00</time>
      </trkpt>
      <trkpt lat="43.78785" lon="5.18679">
        <ele>464</ele>
        <time>2017-02-23T20:48:15+01:00</time>
      </trkpt>
      <trkpt lat="43.78751" lon="5.18653">
        <ele>454</ele>
        <time>2017-02-23T20:48:20+01:00</time>
      </trkpt>
      <trkpt lat="43.78744" lon="5.18631">
        <ele>449</ele>
        <time>2017-02-23T20:48:25+01:00</time>
      </trkpt>
      <trkpt lat="43.7876" lon="5.18617">
        <ele>450</ele>
        <time>2017-02-23T20:48:30+01:00</time>
      </trkpt>
      <trkpt lat="43.78734" lon="5.18623">
        <ele>445</ele>
        <time>2017-02-23T20:48:35+01:00</time>
      </trkpt>
      <trkpt lat="43.78727" lon="5.18651">
        <ele>446</ele>
        <time>2017-02-23T20:48:40+01:00</time>
      </trkpt>
      <trkpt lat="43.78764" lon="5.18741">
        <ele>457</ele>
        <time>2017-02-23T20:48:45+01:00</time>
      </trkpt>
      <trkpt lat="43.7866" lon="5.18711">
        <ele>425</ele>
        <time>2017-02-23T20:48:50+01:00</time>
      </trkpt>
      <trkpt lat="43.78607" lon="5.18651">
        <ele>412</ele>
        <time>2017-02-23T20:48:55+01:00</time>
      </trkpt>
      <trkpt lat="43.7853" lon="5.18509">
        <ele>392</ele>
        <time>2017-02-23T20:49:00+01:00</time>
      </trkpt>
      <trkpt lat="43.78456" lon="5.18476">
        <ele>391</ele>
        <time>2017-02-23T20:49:05+01:00</time>
      </trkpt>
      <trkpt lat="43.78441" lon="5.18419">
        <ele>383</ele>
        <time>2017-02-23T20:49:10+01:00</time>
      </trkpt>
      <trkpt lat="43.78403" lon="5.18386">
        <ele>378</ele>
        <time>2017-02-23T20:49:15+01:00</time>
      </trkpt>
      <trkpt lat="43.78352" lon="5.18212">
        <ele>365</ele>
        <time>2017-02-23T20:49:20+01:00</time>
      </trkpt>
      <trkpt lat="43.78325" lon="5.18163">
        <ele>360</ele>
        <time>2017-02-23T20:49:25+01:00</time>
      </trkpt>
      <trkpt lat="43.78284" lon="5.18141">
        <ele>360</ele>
        <time>2017-02-23T20:49:30+01:00</time>
      </trkpt>
      <trkpt lat="43.78223" lon="5.18155">
        <ele>355</ele>
        <time>2017-02-23T20:49:35+01:00</time>
      </trkpt>
      <trkpt lat="43.78188" lon="5.18145">
        <ele>354</ele>
        <time>2017-02-23T20:49:40+01:00</time>
      </trkpt>
      <trkpt lat="43.78157" lon="5.18112">
        <ele>350</ele>
        <time>2017-02-23T20:49:45+01:00</time>
      </trkpt>
      <trkpt lat="43.78127" lon="5.18105">
        <ele>348</ele>
        <time>2017-02-23T20:49:50+01:00</time>
      </trkpt>
      <trkpt lat="43.7813" lon="5.18131">
        <ele>351</ele>
        <time>2017-02-23T20:49:55+01:00</time>
      </trkpt>
      <trkpt lat="43.78097" lon="5.18149">
        <ele>353</ele>
        <time>2017-02-23T20:50:00+01:00</time>
      </trkpt>
      <trkpt lat="43.78015" lon="5.18128">
        <ele>362</ele>
        <time>2017-02-23T20:50:05+01:00</time>
      </trkpt>
      <trkpt lat="43.78087" lon="5.18222">
        <ele>362</ele>
        <time>2017-02-23T20:50:10+01:00</time>
      </trkpt>
      <trkpt lat="43.7816" lon="5.18231">
        <ele>366</ele>
        <time>2017-02-23T20:50:15+01:00</time>
      </trkpt>
      <trkpt lat="43.78182" lon="5.18262">
        <ele>369</ele>
        <time>2017-02-23T20:50:20+01:00</time>
      </trkpt>
      <trkpt lat="43.78229" lon="5.18274">
        <ele>371</ele>
        <time>2017-02-23T20:50:25+01:00</time>
      </trkpt>
      <trkpt lat="43.78237" lon="5.18296">
        <ele>372</ele>
        <time>2017-02-23T20:50:30+01:00</time>
      </trkpt>
      <trkpt lat="43.78217" lon="5.18373">
        <ele>371</ele>
        <time>2017-02-23T20:50:35+01:00</time>
      </trkpt>
      <trkpt lat="43.78192" lon="5.18418">
        <ele>367</ele>
        <time>2017-02-23T20:50:40+01:00</time>
      </trkpt>
      <trkpt lat="43.78119" lon="5.18463">
        <ele>354</ele>
        <time>2017-02-23T20:50:45+01:00</time>
      </trkpt>
      <trkpt lat="43.77959" lon="5.18473">
        <ele>342</ele>
        <time>2017-02-23T20:50:50+01:00</time>
      </trkpt>
      <trkpt lat="43.77896" lon="5.18486">
        <ele>339</ele>
        <time>2017-02-23T20:50:55+01:00</time>
      </trkpt>
      <trkpt lat="43.77865" lon="5.18462">
        <ele>340</ele>
        <time>2017-02-23T20:51:00+01:00</time>
      </trkpt>
      <trkpt lat="43.77815" lon="5.18456">
        <ele>337</ele>
        <time>2017-02-23T20:51:05+01:00</time>
      </trkpt>
      <trkpt lat="43.77748" lon="5.18492">
        <ele>323</ele>
        <time>2017-02-23T20:51:10+01:00</time>
      </trkpt>
      <trkpt lat="43.77709" lon="5.18534">
        <ele>316</ele>
        <time>2017-02-23T20:51:15+01:00</time>
      </trkpt>
      <trkpt lat="43.7769" lon="5.18523">
        <ele>315</ele>
        <time>2017-02-23T20:51:20+01:00</time>
      </trkpt>
      <trkpt lat="43.77666" lon="5.18555">
        <ele>306</ele>
        <time>2017-02-23T20:51:25+01:00</time>
      </trkpt>
      <trkpt lat="43.77666" lon="5.18596">
        <ele>303</ele>
        <time>2017-02-23T20:51:30+01:00</time>
      </trkpt>
      <trkpt lat="43.77632" lon="5.18641">
        <ele>297</ele>
        <time>2017-02-23T20:51:35+01:00</time>
      </trkpt>
      <trkpt lat="43.77584" lon="5.18687">
        <ele>286</ele>
        <time>2017-02-23T20:51:40+01:00</time>
      </trkpt>
      <trkpt lat="43.7755" lon="5.18816">
        <ele>285</ele>
        <time>2017-02-23T20:51:45+01:00</time>
      </trkpt>
      <trkpt lat="43.77475" lon="5.18874">
        <ele>274</ele>
        <time>2017-02-23T20:51:50+01:00</time>
      </trkpt>
      <trkpt lat="43.7746" lon="5.18912">
        <ele>274</ele>
        <time>2017-02-23T20:51:55+01:00</time>
      </trkpt>
      <trkpt lat="43.77436" lon="5.18935">
        <ele>272</ele>
        <time>2017-02-23T20:52:00+01:00</time>
      </trkpt>
      <trkpt lat="43.77455" lon="5.19043">
        <ele>264</ele>
        <time>2017-02-23T20:52:05+01:00</time>
      </trkpt>
    </trkseg>
  </trk>
</gpx>